Time;durP1;ratioP1;P1;durP2;ratioP2;P2;SDS_P1;SDS_P2;PMS_P1;PMS_P2;Temp;Humidity;BMP_temperature;BMP_pressure;BME280_temperature;BME280_humidity;BME280_pressure;Samples;Min_cycle;Max_cycle;Signal;HPM_P1;HPM_P2
2022/10/03 00:02:10;;;;;;;8.70;3.33;;;;;;;12.05;87.87;94840.69;5112405;28;20172;-80
2022/10/03 00:05:31;;;;;;;6.30;3.40;;;;;;;11.97;87.39;94830.41;5113016;28;20157;-80
2022/10/03 00:08:17;;;;;;;5.13;3.17;;;;;;;11.99;87.40;94838.13;5066510;28;20189;-80
2022/10/03 00:11:14;;;;;;;10.13;3.60;;;;;;;11.91;87.89;94831.31;5113319;27;20197;-80
2022/10/03 00:13:45;;;;;;;5.13;3.20;;;;;;;11.86;87.98;94817.13;5112189;28;20165;-80
2022/10/03 00:16:19;;;;;;;4.73;3.23;;;;;;;11.78;88.15;94818.25;5112453;28;20165;-80
2022/10/03 00:19:17;;;;;;;10.93;3.80;;;;;;;11.80;88.93;94815.38;5128786;27;20160;-80
2022/10/03 00:22:04;;;;;;;17.50;3.20;;;;;;;11.66;88.88;94804.97;5125671;28;20223;-80
2022/10/03 00:25:34;;;;;;;6.07;3.60;;;;;;;11.66;89.89;94804.97;5123773;27;20179;-80
2022/10/03 00:28:20;;;;;;;5.43;3.30;;;;;;;11.71;89.29;94806.94;5005723;28;20215;-80
2022/10/03 00:31:09;;;;;;;6.13;3.23;;;;;;;11.59;89.31;94804.19;5020949;28;20199;-80
2022/10/03 00:33:49;;;;;;;6.70;3.70;;;;;;;11.29;89.08;94753.22;5127402;28;20187;-80
2022/10/03 00:36:49;;;;;;;8.97;3.77;;;;;;;11.62;89.35;94816.16;5132313;28;20168;-80
2022/10/03 00:39:45;;;;;;;8.00;4.30;;;;;;;11.61;89.37;94814.53;5121206;28;20162;-80
2022/10/03 00:42:59;;;;;;;8.13;3.40;;;;;;;11.53;90.05;94812.19;5106070;28;20188;-80
2022/10/03 00:45:43;;;;;;;7.93;3.30;;;;;;;11.59;90.20;94814.75;5059147;28;20199;-80
2022/10/03 00:48:40;;;;;;;8.80;4.03;;;;;;;11.61;89.78;94814.53;5133034;28;20152;-80
2022/10/03 00:51:32;;;;;;;8.97;4.47;;;;;;;11.47;89.65;94808.59;5123347;28;20631;-80
2022/10/03 00:54:16;;;;;;;6.97;4.17;;;;;;;11.58;89.66;94812.34;5101294;28;20538;-80
2022/10/03 00:56:44;;;;;;;11.90;4.23;;;;;;;11.61;89.66;94817.97;5122563;28;20168;-80
2022/10/03 01:00:06;;;;;;;6.93;3.40;;;;;;;11.61;89.20;94820.59;5112042;28;20149;-80
2022/10/03 01:02:37;;;;;;;5.37;3.07;;;;;;;11.51;89.80;94808.94;5038065;28;20188;-80
2022/10/03 01:05:15;;;;;;;5.83;2.70;;;;;;;11.53;89.61;94805.06;5099433;28;20177;-80
2022/10/03 01:07:55;;;;;;;8.53;3.30;;;;;;;11.57;89.53;94798.34;5103300;28;20196;-80
2022/10/03 01:10:51;;;;;;;3.50;2.80;;;;;;;11.45;89.60;94792.19;5111510;28;20197;-80
2022/10/03 01:13:34;;;;;;;4.03;2.50;;;;;;;11.45;89.82;94797.44;5086510;28;20165;-80
2022/10/03 01:16:26;;;;;;;4.53;2.70;;;;;;;11.42;89.84;94787.31;5111672;28;20188;-80
2022/10/03 01:18:51;;;;;;;4.13;2.47;;;;;;;11.53;89.01;94797.16;5118054;28;20193;-80
2022/10/03 01:21:46;;;;;;;5.13;2.37;;;;;;;11.48;89.14;94790.94;5123824;28;20201;-80
2022/10/03 01:24:25;;;;;;;2.73;2.30;;;;;;;11.43;89.35;94783.66;5091875;28;20210;-80
2022/10/03 01:27:06;;;;;;;3.87;2.23;;;;;;;11.40;89.09;94783.31;5094422;27;20166;-80
2022/10/03 01:32:43;;;;;;;2.63;2.20;;;;;;;11.41;89.59;94775.19;5106718;28;20172;-79
2022/10/03 01:35:44;;;;;;;2.87;2.10;;;;;;;11.33;88.59;94768.34;5115714;28;20716;-80
2022/10/03 01:38:26;;;;;;;5.00;2.47;;;;;;;11.07;88.61;94734.34;5112932;28;20162;-80
2022/10/03 01:41:16;;;;;;;4.53;2.27;;;;;;;11.36;89.11;94780.31;5105849;28;20802;-80
2022/10/03 01:43:42;;;;;;;6.00;2.87;;;;;;;11.35;88.83;94790.03;5105958;28;20173;-80
2022/10/03 01:46:18;;;;;;;5.23;2.93;;;;;;;11.32;89.01;94782.59;5106107;28;20172;-80
2022/10/03 01:48:53;;;;;;;6.20;2.47;;;;;;;11.27;89.21;94777.13;5105829;28;20161;-80
2022/10/03 01:51:26;;;;;;;3.80;2.67;;;;;;;11.18;89.83;94770.53;5105780;28;20164;-80
2022/10/03 01:54:05;;;;;;;3.40;2.23;;;;;;;11.25;89.72;94765.19;5105611;28;20406;-80
2022/10/03 01:56:51;;;;;;;15.07;2.93;;;;;;;11.28;89.19;94772.69;5105723;28;20185;-80
2022/10/03 01:59:20;;;;;;;3.63;2.33;;;;;;;11.26;89.19;94777.34;5103735;28;20180;-80
2022/10/03 02:01:51;;;;;;;2.60;1.93;;;;;;;11.22;89.55;94770.91;5095023;28;20200;-80
2022/10/03 02:04:30;;;;;;;6.50;2.40;;;;;;;11.18;89.24;94775.81;5094432;28;20182;-80
2022/10/03 02:07:16;;;;;;;7.43;2.30;;;;;;;11.18;89.56;94764.44;5094647;28;20214;-80
2022/10/03 02:10:00;;;;;;;2.43;1.93;;;;;;;11.20;88.91;94778.22;5094684;28;21120;-80
2022/10/03 02:12:34;;;;;;;4.13;2.27;;;;;;;11.06;89.06;94742.50;5094213;28;20170;-80
2022/10/03 02:15:27;;;;;;;9.33;2.70;;;;;;;11.20;89.02;94765.06;5094188;28;20525;-80
2022/10/03 02:18:11;;;;;;;6.43;2.70;;;;;;;11.16;89.16;94766.50;5094185;28;20186;-80
2022/10/03 02:21:07;;;;;;;3.43;2.20;;;;;;;11.10;89.02;94764.72;5093831;28;20173;-80
2022/10/03 02:23:32;;;;;;;6.93;2.50;;;;;;;11.09;89.72;94761.28;5075474;28;20200;-79
2022/10/03 02:26:09;;;;;;;5.67;2.93;;;;;;;11.09;89.67;94765.75;5108174;28;20169;-80
2022/10/03 02:28:57;;;;;;;4.13;2.77;;;;;;;10.95;89.77;94765.06;5095939;28;20180;-80
2022/10/03 02:31:31;;;;;;;3.43;2.07;;;;;;;10.90;90.66;94767.53;5095870;28;20537;-80
2022/10/03 02:34:22;;;;;;;5.67;2.87;;;;;;;10.94;90.59;94763.44;5105093;28;20248;-80
2022/10/03 02:37:10;;;;;;;6.10;2.87;;;;;;;10.83;91.23;94775.47;5106164;28;20176;-80
2022/10/03 02:39:55;;;;;;;3.63;2.73;;;;;;;10.88;91.62;94775.66;5099440;28;20162;-80
2022/10/03 02:42:36;;;;;;;9.20;2.93;;;;;;;10.92;91.48;94776.00;5113502;28;20314;-80
2022/10/03 02:45:16;;;;;;;6.83;3.10;;;;;;;10.93;91.69;94778.44;5095747;28;20176;-81
2022/10/03 02:47:54;;;;;;;7.10;2.83;;;;;;;10.94;91.90;94780.06;5113985;28;20552;-80
2022/10/03 02:50:42;;;;;;;6.17;3.47;;;;;;;10.98;92.17;94772.53;5114017;28;20192;-80
2022/10/03 02:53:47;;;;;;;3.53;2.30;;;;;;;10.89;91.92;94787.81;5114087;28;20157;-80
2022/10/03 02:56:43;;;;;;;9.20;2.90;;;;;;;10.84;91.53;94753.38;5114033;28;20155;-80
2022/10/03 02:59:18;;;;;;;3.60;1.97;;;;;;;11.05;91.75;94775.13;5113989;28;20193;-80
2022/10/03 03:02:20;;;;;;;4.73;2.37;;;;;;;11.12;91.46;94774.03;5113949;28;20156;-80
2022/10/03 03:05:17;;;;;;;5.10;2.80;;;;;;;11.16;90.26;94774.38;5113807;28;20552;-80
2022/10/03 03:08:01;;;;;;;6.20;2.57;;;;;;;11.10;90.48;94775.25;5113922;28;20172;-79
2022/10/03 03:10:42;;;;;;;3.83;3.23;;;;;;;11.04;91.04;94768.22;5099661;28;20734;-80
2022/10/03 03:13:35;;;;;;;17.83;6.57;;;;;;;11.05;91.24;94772.47;5104515;28;20238;-79
2022/10/03 03:16:04;;;;;;;10.80;6.57;;;;;;;11.10;91.21;94764.72;5098167;28;20165;-79
2022/10/03 03:18:45;;;;;;;13.90;9.10;;;;;;;11.06;90.91;94750.38;5096860;28;20166;-80
2022/10/03 03:21:54;;;;;;;18.40;11.57;;;;;;;11.01;90.57;94748.38;5094045;28;20168;-80
2022/10/03 03:24:56;;;;;;;15.27;9.50;;;;;;;11.16;90.99;94764.66;5098548;28;20169;-81
2022/10/03 03:27:42;;;;;;;27.17;16.50;;;;;;;11.19;90.60;94756.34;5095273;28;20205;-81
2022/10/03 03:30:19;;;;;;;22.77;13.17;;;;;;;11.08;90.93;94749.13;5096789;28;20212;-81
2022/10/03 03:33:06;;;;;;;18.97;12.20;;;;;;;11.21;90.91;94761.41;5091110;28;20256;-80
2022/10/03 03:36:06;;;;;;;17.03;9.83;;;;;;;11.09;90.77;94757.84;5091577;28;20312;-80
2022/10/03 03:38:55;;;;;;;14.33;10.00;;;;;;;11.08;91.88;94753.59;4994685;28;20556;-80
2022/10/03 03:41:45;;;;;;;16.33;9.47;;;;;;;11.13;91.58;94751.94;5096568;28;20240;-79
2022/10/03 03:44:25;;;;;;;13.43;8.50;;;;;;;11.08;91.22;94759.66;5106617;28;20778;-80
2022/10/03 03:46:56;;;;;;;14.57;8.47;;;;;;;11.09;91.62;94753.38;5108211;28;20263;-80
2022/10/03 03:49:37;;;;;;;13.60;8.37;;;;;;;11.13;91.42;94751.13;5111867;28;20208;-80
2022/10/03 03:52:30;;;;;;;10.33;6.80;;;;;;;11.04;91.25;94731.34;5112090;28;20264;-80
2022/10/03 03:55:08;;;;;;;14.63;6.60;;;;;;;10.96;91.60;94735.06;5107668;28;20180;-80
2022/10/03 03:57:59;;;;;;;13.37;7.10;;;;;;;10.98;91.96;94729.59;5109427;28;20659;-80
2022/10/03 04:00:46;;;;;;;11.27;6.37;;;;;;;11.13;91.85;94740.59;5110850;28;20683;-80
2022/10/03 04:03:24;;;;;;;9.13;6.40;;;;;;;11.16;91.90;94740.94;5109582;28;20188;-80
2022/10/03 04:06:08;;;;;;;7.93;4.60;;;;;;;11.16;91.69;94735.69;5112373;28;20169;-80
2022/10/03 04:08:59;;;;;;;11.13;5.43;;;;;;;11.12;92.26;94737.16;5112063;28;20222;-80
2022/10/03 04:11:50;;;;;;;15.90;5.67;;;;;;;11.09;91.64;94718.34;5111147;28;20172;-80
2022/10/03 04:14:40;;;;;;;12.63;5.60;;;;;;;11.21;91.54;94732.41;5110287;28;20638;-80
2022/10/03 04:20:29;;;;;;;13.33;5.63;;;;;;;11.15;91.43;94728.84;5111821;28;20179;-80
2022/10/03 04:23:31;;;;;;;16.53;6.17;;;;;;;11.14;91.58;94727.22;5084465;28;20581;-80
2022/10/03 04:26:25;;;;;;;16.67;6.70;;;;;;;11.05;91.55;94717.97;5110753;28;20169;-80
2022/10/03 04:29:10;;;;;;;21.07;7.30;;;;;;;11.16;91.94;94737.50;5098096;28;20580;-79
2022/10/03 04:32:02;;;;;;;22.07;7.70;;;;;;;11.18;92.09;94732.84;5109157;28;20201;-79
2022/10/03 04:34:52;;;;;;;19.47;7.80;;;;;;;11.20;91.77;94725.53;5110824;28;20181;-79
2022/10/03 04:37:30;;;;;;;19.37;7.50;;;;;;;11.24;92.18;94732.00;5111661;28;20180;-79
2022/10/03 04:40:16;;;;;;;15.43;6.80;;;;;;;11.27;92.24;94729.72;5111826;28;20252;-79
2022/10/03 04:43:03;;;;;;;16.07;7.43;;;;;;;11.31;92.54;94732.72;5102881;28;20185;-79
2022/10/03 04:45:45;;;;;;;15.47;8.10;;;;;;;11.30;93.00;94720.56;5096174;28;20185;-79
2022/10/03 04:48:22;;;;;;;18.90;8.87;;;;;;;11.45;93.06;94734.19;5102440;28;20177;-79
2022/10/03 04:51:00;;;;;;;23.17;7.90;;;;;;;11.52;92.35;94727.00;5102028;28;20178;-79
2022/10/03 04:53:53;;;;;;;20.83;7.63;;;;;;;11.60;91.97;94724.09;5096303;28;20166;-79
2022/10/03 04:56:37;;;;;;;16.80;6.90;;;;;;;11.60;91.15;94721.44;5087026;28;20194;-79
2022/10/03 04:59:20;;;;;;;23.03;7.20;;;;;;;11.60;91.34;94731.19;5070768;28;20174;-79
2022/10/03 05:01:54;;;;;;;20.00;7.97;;;;;;;11.58;91.79;94718.25;5084570;28;20180;-79
2022/10/03 05:04:35;;;;;;;26.33;9.07;;;;;;;11.62;91.68;94729.94;5090975;28;20169;-79
2022/10/03 05:07:19;;;;;;;24.13;7.77;;;;;;;11.64;91.96;94721.81;5091049;28;20173;-79
2022/10/03 05:09:54;;;;;;;31.20;13.23;;;;;;;11.65;92.06;94713.69;5098355;28;20192;-79
2022/10/03 05:12:52;;;;;;;30.60;11.97;;;;;;;11.44;91.77;94674.59;5100548;28;20710;-79
2022/10/03 05:15:43;;;;;;;41.27;11.80;;;;;;;11.81;91.64;94728.13;5095396;28;20177;-79
2022/10/03 05:18:40;;;;;;;30.13;11.67;;;;;;;11.88;91.62;94722.78;5095409;28;20177;-79
2022/10/03 05:21:22;;;;;;;32.13;14.10;;;;;;;11.96;91.74;94728.56;5095039;28;20174;-79
2022/10/03 05:24:14;;;;;;;27.27;12.40;;;;;;;12.02;91.60;94726.88;5087040;28;20173;-79
2022/10/03 05:26:57;;;;;;;20.60;10.97;;;;;;;12.06;91.11;94726.19;5095210;28;20166;-79
2022/10/03 05:29:26;;;;;;;28.10;13.00;;;;;;;12.09;90.54;94727.59;5094934;28;20254;-79
2022/10/03 05:32:13;;;;;;;15.07;9.27;;;;;;;12.14;89.76;94721.63;5094941;28;20183;-79
2022/10/03 05:34:43;;;;;;;13.27;5.20;;;;;;;12.17;89.05;94702.72;5087925;28;20586;-79
2022/10/03 05:37:11;;;;;;;11.43;4.83;;;;;;;12.23;88.38;94705.28;5094779;28;20189;-79
2022/10/03 05:39:58;;;;;;;12.30;5.73;;;;;;;12.18;88.31;94694.59;5095139;28;20174;-78
2022/10/03 05:42:50;;;;;;;10.87;4.97;;;;;;;12.26;88.33;94693.47;5094560;28;20235;-79
2022/10/03 05:45:30;;;;;;;10.03;5.23;;;;;;;12.37;88.46;94705.88;5101668;28;20605;-79
2022/10/03 05:48:30;;;;;;;15.73;4.80;;;;;;;12.46;88.81;94699.25;5085822;28;20593;-79
2022/10/03 05:51:20;;;;;;;9.03;4.03;;;;;;;12.65;88.28;94713.97;5103817;28;20204;-78
2022/10/03 05:54:07;;;;;;;6.90;4.30;;;;;;;12.75;87.97;94714.25;5105856;28;20170;-79
2022/10/03 05:56:57;;;;;;;15.33;5.00;;;;;;;12.88;87.79;94713.22;5085726;28;20534;-79
2022/10/03 05:59:44;;;;;;;10.10;4.60;;;;;;;13.06;87.67;94721.03;5114748;28;20207;-79
2022/10/03 06:02:28;;;;;;;14.30;4.97;;;;;;;13.12;87.28;94714.84;5087773;28;20184;-79
2022/10/03 06:05:27;;;;;;;12.30;6.13;;;;;;;13.19;87.07;94714.75;5112701;28;20180;-79
2022/10/03 06:08:01;;;;;;;21.03;6.17;;;;;;;13.25;86.82;94719.13;5101561;28;20687;-79
2022/10/03 06:10:42;;;;;;;16.77;5.17;;;;;;;13.33;87.13;94731.19;5103913;28;20683;-79
2022/10/03 06:13:46;;;;;;;21.87;6.07;;;;;;;13.42;86.82;94732.44;5100121;28;20169;-79
2022/10/03 06:16:21;;;;;;;16.63;5.80;;;;;;;13.26;86.61;94730.50;5068934;28;20264;-79
2022/10/03 06:19:19;;;;;;;24.17;6.63;;;;;;;13.24;87.03;94738.66;5094576;28;20177;-79
2022/10/03 06:22:12;;;;;;;15.40;5.67;;;;;;;13.36;86.68;94749.25;5097973;28;20260;-79
2022/10/03 06:24:46;;;;;;;12.27;5.20;;;;;;;13.47;86.43;94743.97;5057949;28;20186;-79
2022/10/03 06:27:21;;;;;;;11.33;4.87;;;;;;;13.53;85.75;94747.50;5103446;28;20173;-80
2022/10/03 06:30:20;;;;;;;12.23;4.90;;;;;;;13.59;84.27;94742.09;5104006;28;20583;-80
2022/10/03 06:33:24;;;;;;;9.33;5.40;;;;;;;13.70;82.18;94744.97;5104967;28;20169;-80
2022/10/03 06:36:12;;;;;;;8.10;4.43;;;;;;;13.74;81.83;94740.81;5080916;28;20244;-80
2022/10/03 06:39:06;;;;;;;8.07;3.00;;;;;;;13.81;82.62;94739.66;5094996;28;20174;-80
2022/10/03 06:41:50;;;;;;;10.67;3.90;;;;;;;13.93;82.87;94748.34;5116543;27;20292;-80
2022/10/03 06:44:27;;;;;;;8.63;3.20;;;;;;;14.04;83.02;94743.28;5120199;27;20646;-80
2022/10/03 06:47:25;;;;;;;11.63;4.03;;;;;;;14.11;82.30;94743.94;5123138;27;20666;-80
2022/10/03 06:50:09;;;;;;;15.90;4.80;;;;;;;14.19;82.18;94747.00;5124790;27;20202;-80
2022/10/03 06:53:04;;;;;;;19.27;4.17;;;;;;;14.22;81.29;94741.25;5115059;27;20208;-80
2022/10/03 06:56:03;;;;;;;12.50;3.93;;;;;;;14.30;79.66;94753.31;5123234;27;20177;-80
2022/10/03 06:58:47;;;;;;;13.40;3.40;;;;;;;14.28;79.89;94768.63;5117963;27;20184;-80
2022/10/03 07:01:19;;;;;;;5.30;2.93;;;;;;;14.26;80.60;94763.59;5100153;27;20165;-80
2022/10/03 07:03:53;;;;;;;11.50;3.00;;;;;;;14.25;81.54;94771.75;5134178;27;20312;-80
2022/10/03 07:06:47;;;;;;;8.17;3.63;;;;;;;14.08;81.51;94771.69;5134112;27;20159;-80
2022/10/03 07:09:37;;;;;;;6.90;3.67;;;;;;;14.17;81.20;94794.13;5126793;27;20246;-80
2022/10/03 07:12:32;;;;;;;9.20;4.30;;;;;;;14.09;81.89;94798.97;5122554;27;20176;-80
2022/10/03 07:15:17;;;;;;;17.27;4.93;;;;;;;13.98;82.14;94809.34;5124225;27;20173;-80
2022/10/03 07:18:00;;;;;;;10.93;4.93;;;;;;;13.93;83.15;94811.06;5124701;27;20187;-80
2022/10/03 07:20:32;;;;;;;13.50;5.13;;;;;;;13.92;83.70;94820.06;5103590;28;20188;-81
2022/10/03 07:23:19;;;;;;;9.80;4.53;;;;;;;13.85;84.70;94817.53;5122590;27;20256;-80
2022/10/03 07:26:15;;;;;;;17.17;4.53;;;;;;;13.78;85.72;94832.72;5121104;27;20165;-80
2022/10/03 07:29:08;;;;;;;8.27;4.20;;;;;;;13.67;86.21;94833.50;5119604;27;20165;-80
2022/10/03 07:31:50;;;;;;;13.17;4.10;;;;;;;13.51;85.97;94826.25;5122392;27;20180;-80
2022/10/03 07:34:37;;;;;;;11.30;3.90;;;;;;;13.36;86.93;94823.28;5113072;27;20266;-80
2022/10/03 07:40:57;;;;;;;9.10;4.67;;;;;;;13.35;88.83;94834.88;5123140;27;20222;-81
2022/10/03 07:43:44;;;;;;;7.40;4.23;;;;;;;13.42;89.98;94856.72;5107577;27;20190;-81
2022/10/03 07:47:03;;;;;;;9.87;5.13;;;;;;;13.48;90.31;94846.06;5121482;27;20683;-81
2022/10/03 07:49:47;;;;;;;20.70;13.40;;;;;;;13.21;91.08;94840.38;5088160;28;20209;-81
2022/10/03 07:52:28;;;;;;;28.13;17.13;;;;;;;13.09;91.95;94847.44;5105296;28;20715;-80
2022/10/03 07:55:18;;;;;;;16.73;9.63;;;;;;;13.05;92.89;94838.38;5094549;28;20218;-80
2022/10/03 07:57:52;;;;;;;18.53;8.10;;;;;;;13.15;93.14;94836.00;5112449;28;20208;-79
2022/10/03 08:00:43;;;;;;;16.30;13.13;;;;;;;13.04;93.31;94826.19;5112336;27;20660;-80
2022/10/03 08:03:51;;;;;;;24.40;17.33;;;;;;;13.14;93.36;94821.19;5075525;27;20191;-81
2022/10/03 08:06:25;;;;;;;32.63;24.70;;;;;;;13.36;93.64;94841.78;5109374;28;20169;-81
2022/10/03 08:09:05;;;;;;;29.30;20.03;;;;;;;13.38;93.31;94839.72;5112403;28;20674;-81
2022/10/03 08:12:04;;;;;;;16.10;10.90;;;;;;;13.35;93.87;94842.81;5112415;28;20184;-80
2022/10/03 08:14:49;;;;;;;5.40;3.60;;;;;;;13.38;93.19;94834.44;5092225;28;20219;-81
2022/10/03 08:17:15;;;;;;;5.10;3.50;;;;;;;13.57;93.17;94844.69;5112295;28;20556;-80
2022/10/03 08:20:09;;;;;;;6.50;2.93;;;;;;;13.81;92.16;94855.28;5112397;28;20158;-80
2022/10/03 08:22:37;;;;;;;3.57;2.67;;;;;;;13.93;91.15;94854.22;5037098;28;20195;-82
2022/10/03 08:25:33;;;;;;;4.77;3.13;;;;;;;13.93;90.37;94856.84;5120624;28;20268;-81
2022/10/03 08:28:18;;;;;;;8.40;3.87;;;;;;;14.05;90.04;94851.56;5110974;28;20172;-81
2022/10/03 08:31:23;;;;;;;5.20;1.97;;;;;;;14.01;90.25;94860.22;5113435;28;20189;-80
2022/10/03 08:34:26;;;;;;;5.20;2.47;;;;;;;14.02;90.30;94859.16;5109720;28;20249;-81
2022/10/03 08:37:09;;;;;;;5.70;3.70;;;;;;;14.12;89.98;94857.53;5104700;28;20246;-80
2022/10/03 08:39:34;;;;;;;4.93;3.97;;;;;;;14.17;89.37;94855.00;5116219;28;20176;-80
2022/10/03 08:42:20;;;;;;;6.27;4.20;;;;;;;14.27;89.87;94865.03;5114251;28;20209;-81
2022/10/03 08:44:45;;;;;;;6.07;3.90;;;;;;;14.37;89.63;94867.84;5116147;28;20229;-82
2022/10/03 08:47:40;;;;;;;3.87;3.17;;;;;;;14.50;90.04;94861.53;5115701;28;20652;-81
2022/10/03 08:50:42;;;;;;;7.63;4.03;;;;;;;14.67;90.48;94867.69;5110485;28;20196;-82
2022/10/03 08:57:09;;;;;;;6.13;2.33;;;;;;;15.03;89.87;94862.03;5115694;28;20173;-82
2022/10/03 08:59:47;;;;;;;6.00;2.17;;;;;;;15.12;88.31;94861.63;5062589;28;20732;-82
2022/10/03 09:02:49;;;;;;;4.80;2.47;;;;;;;15.24;88.10;94867.66;5112474;28;20638;-81
2022/10/03 09:05:33;;;;;;;10.20;3.47;;;;;;;15.30;88.56;94880.00;5096860;28;20267;-81
2022/10/03 09:08:37;;;;;;;6.73;3.80;;;;;;;15.41;88.76;94869.28;5115461;28;20180;-81
2022/10/03 09:11:29;;;;;;;12.67;5.50;;;;;;;15.43;88.74;94853.94;5115438;27;20288;-80
2022/10/03 09:14:33;;;;;;;7.97;4.00;;;;;;;15.75;88.72;94874.63;5097230;28;20880;-80
2022/10/03 09:17:28;;;;;;;2.87;2.20;;;;;;;15.80;86.86;94882.69;5113995;28;20161;-81
2022/10/03 09:20:30;;;;;;;2.73;2.23;;;;;;;15.75;86.36;94887.91;5111728;28;20157;-79
2022/10/03 09:23:34;;;;;;;1.95;1.75;;;;;;;15.86;87.26;94892.34;5114148;28;20247;-81
2022/10/03 09:26:29;;;;;;;2.30;1.85;;;;;;;15.89;85.49;94880.44;5111961;28;20208;-81
2022/10/03 09:29:19;;;;;;;2.27;1.90;;;;;;;15.82;84.92;94889.38;5111971;28;20238;-81
2022/10/03 09:32:05;;;;;;;2.90;2.17;;;;;;;15.91;85.89;94881.81;5113519;28;20185;-80
2022/10/03 09:34:43;;;;;;;4.95;2.72;;;;;;;15.99;85.61;94889.38;5113640;28;20181;-80
2022/10/03 09:37:52;;;;;;;4.70;2.03;;;;;;;16.08;84.59;94881.78;5113237;28;20185;-80
2022/10/03 09:40:40;;;;;;;7.07;2.60;;;;;;;16.07;83.24;94888.16;5112613;28;20252;-81
2022/10/03 09:43:36;;;;;;;3.47;1.90;;;;;;;16.01;83.61;94884.59;5111643;28;20671;-80
2022/10/03 09:46:38;;;;;;;3.15;2.22;;;;;;;16.09;83.80;94886.84;5111675;28;20169;-80
2022/10/03 09:49:22;;;;;;;3.88;1.90;;;;;;;16.22;84.07;94888.34;5111226;28;20663;-80
2022/10/03 09:52:00;;;;;;;2.05;1.70;;;;;;;16.31;83.38;94891.41;5111813;28;20677;-80
2022/10/03 09:54:48;;;;;;;6.20;1.65;;;;;;;16.32;81.92;94887.69;5111493;28;20177;-80
2022/10/03 09:57:23;;;;;;;5.20;2.45;;;;;;;16.39;81.66;94896.28;5094327;28;20226;-80
2022/10/03 09:59:51;;;;;;;4.22;2.25;;;;;;;16.45;80.92;94880.16;5112822;28;20187;-81
2022/10/03 10:02:59;;;;;;;2.73;2.03;;;;;;;16.42;80.29;94880.66;5112583;28;20177;-80
2022/10/03 10:05:43;;;;;;;2.53;2.00;;;;;;;16.54;78.61;94872.56;5095318;28;20185;-80
2022/10/03 10:08:53;;;;;;;3.40;1.90;;;;;;;16.52;78.36;94850.72;5112702;28;20261;-81
2022/10/03 10:11:18;;;;;;;3.63;2.13;;;;;;;16.58;77.58;94865.72;5077741;28;20658;-81
2022/10/03 10:14:02;;;;;;;2.40;1.60;;;;;;;16.62;76.25;94863.38;5112506;28;20208;-80
2022/10/03 10:16:33;;;;;;;1.93;1.63;;;;;;;16.64;75.94;94858.63;5112497;28;20207;-81
2022/10/03 10:19:11;;;;;;;2.63;2.10;;;;;;;16.70;75.32;94874.38;5112287;28;20177;-81
2022/10/03 10:22:07;;;;;;;2.38;2.05;;;;;;;16.66;75.96;94867.97;5112291;28;20574;-81
2022/10/03 10:25:15;;;;;;;5.05;2.22;;;;;;;16.65;74.85;94849.59;5112349;28;20249;-81
2022/10/03 10:28:24;;;;;;;2.42;2.05;;;;;;;16.81;71.88;94878.75;5112077;28;20172;-81
2022/10/03 10:31:11;;;;;;;8.63;1.92;;;;;;;16.86;73.30;94865.53;5070433;28;20228;-81
2022/10/03 10:34:09;;;;;;;2.45;2.00;;;;;;;16.93;72.60;94868.81;5112077;28;20263;-81
2022/10/03 10:36:46;;;;;;;2.55;1.83;;;;;;;17.03;73.10;94878.75;5112217;28;20651;-81
2022/10/03 10:39:47;;;;;;;4.95;3.10;;;;;;;16.98;73.56;94879.50;5111993;28;20169;-81
2022/10/03 10:42:43;;;;;;;3.88;2.05;;;;;;;17.16;72.76;94885.53;5047896;28;20308;-81
2022/10/03 10:45:34;;;;;;;3.83;1.70;;;;;;;17.17;71.63;94884.47;5091523;28;20691;-81
2022/10/03 10:48:12;;;;;;;4.15;1.55;;;;;;;17.21;70.86;94885.59;5073372;28;20170;-81
2022/10/03 10:51:05;;;;;;;11.63;1.58;;;;;;;17.20;70.40;94883.97;5091406;28;20189;-81
2022/10/03 10:54:08;;;;;;;3.42;1.30;;;;;;;17.21;70.92;94885.59;5091263;28;20188;-80
2022/10/03 10:56:56;;;;;;;2.85;1.65;;;;;;;17.15;70.09;94886.56;5073116;28;20192;-81
2022/10/03 10:59:42;;;;;;;2.22;1.85;;;;;;;17.15;70.21;94887.38;5090403;28;20177;-81
2022/10/03 11:02:32;;;;;;;2.05;1.88;;;;;;;16.93;70.43;94846.72;5091278;28;20213;-81
2022/10/03 11:05:33;;;;;;;1.60;1.27;;;;;;;17.21;71.26;94882.94;5091250;28;20180;-80
2022/10/03 11:08:36;;;;;;;2.28;1.63;;;;;;;17.23;71.15;94884.25;5101473;28;20555;-80
2022/10/03 11:11:31;;;;;;;4.13;1.90;;;;;;;17.00;69.69;94879.25;5111505;28;20236;-81
2022/10/03 11:14:47;;;;;;;4.68;2.42;;;;;;;16.87;70.90;94876.97;5111700;28;20177;-81
2022/10/03 11:17:28;;;;;;;6.05;1.80;;;;;;;16.90;72.86;94879.94;5060658;28;20572;-80
2022/10/03 11:20:02;;;;;;;1.70;1.60;;;;;;;16.75;71.23;94882.44;5091179;28;20261;-81
2022/10/03 11:23:04;;;;;;;4.15;2.50;;;;;;;16.59;72.52;94877.94;5096635;28;20172;-81
2022/10/03 11:25:52;;;;;;;6.05;2.90;;;;;;;16.56;71.88;94886.41;5111570;28;21054;-81
2022/10/03 11:28:42;;;;;;;2.65;2.40;;;;;;;16.36;71.91;94881.63;5111407;28;20525;-80
2022/10/03 11:31:29;;;;;;;4.73;3.17;;;;;;;16.32;73.27;94882.38;5111178;28;20201;-81
2022/10/03 11:34:21;;;;;;;8.05;3.22;;;;;;;16.28;72.93;94874.09;5111403;28;21003;-80
2022/10/03 11:37:14;;;;;;;5.00;3.17;;;;;;;16.19;73.11;94847.13;5103533;28;20179;-81
2022/10/03 11:39:59;;;;;;;7.77;4.43;;;;;;;16.30;72.38;94863.22;5102954;28;20173;-81
2022/10/03 11:42:54;;;;;;;23.60;6.05;;;;;;;16.36;71.73;94878.16;5105246;28;20225;-80
2022/10/03 11:45:32;;;;;;;10.23;5.18;;;;;;;16.38;73.14;94866.25;5112221;28;20164;-81
2022/10/03 11:48:08;;;;;;;8.20;4.97;;;;;;;16.49;73.38;94873.31;5112452;28;20229;-81
2022/10/03 11:50:50;;;;;;;8.05;4.22;;;;;;;16.54;72.13;94870.69;5111651;28;20201;-81
2022/10/03 11:53:22;;;;;;;7.05;4.30;;;;;;;16.53;72.53;94865.63;5112017;28;20165;-80
2022/10/03 11:55:53;;;;;;;10.13;3.80;;;;;;;16.55;73.08;94864.34;5112022;28;20176;-81
2022/10/03 11:58:40;;;;;;;6.65;3.75;;;;;;;16.60;73.38;94871.59;5111748;28;20709;-81
2022/10/03 12:01:33;;;;;;;5.05;3.30;;;;;;;16.46;72.62;94870.31;5111674;28;20699;-81
2022/10/03 12:04:10;;;;;;;6.25;3.28;;;;;;;16.25;72.30;94852.53;5111836;28;20177;-81
2022/10/03 12:09:55;;;;;;;6.57;3.90;;;;;;;16.32;72.54;94866.44;5108107;28;20292;-80
2022/10/03 12:12:36;;;;;;;5.18;3.70;;;;;;;16.30;71.83;94868.53;5086400;28;20184;-81
2022/10/03 12:15:16;;;;;;;6.38;4.05;;;;;;;16.25;71.09;94855.19;5109151;28;20172;-81
2022/10/03 12:17:51;;;;;;;6.50;3.70;;;;;;;16.18;69.38;94866.78;5111625;28;20168;-80
2022/10/03 12:20:28;;;;;;;4.18;3.17;;;;;;;16.26;70.09;94875.41;5111938;28;20176;-81
2022/10/03 12:23:08;;;;;;;5.15;3.17;;;;;;;16.39;70.22;94859.88;5103576;28;20184;-80
2022/10/03 12:25:38;;;;;;;5.40;2.83;;;;;;;16.54;69.58;94843.31;5107909;28;20200;-80
2022/10/03 12:28:19;;;;;;;4.97;3.13;;;;;;;16.74;68.79;94861.41;5113102;28;20267;-80
2022/10/03 12:31:01;;;;;;;5.05;3.72;;;;;;;16.88;68.20;94850.13;5114801;28;20219;-80
2022/10/03 12:33:45;;;;;;;3.67;3.35;;;;;;;17.08;65.76;94841.56;5114597;28;20264;-80
2022/10/03 12:36:19;;;;;;;4.03;2.88;;;;;;;16.95;62.31;94847.28;5123957;28;20181;-80
2022/10/03 12:39:06;;;;;;;5.38;3.60;;;;;;;17.06;63.39;94853.50;5111412;28;20203;-80
2022/10/03 12:41:40;;;;;;;4.43;3.70;;;;;;;17.12;62.96;94845.34;5111249;28;20216;-80
2022/10/03 12:44:34;;;;;;;9.90;4.32;;;;;;;17.21;63.26;94848.34;5112213;28;20168;-82
2022/10/03 12:47:43;;;;;;;3.33;3.03;;;;;;;17.34;62.76;94858.56;5106481;28;20169;-80
2022/10/03 12:50:39;;;;;;;5.80;3.80;;;;;;;17.18;62.37;94823.03;5104717;28;20188;-80
2022/10/03 12:53:23;;;;;;;4.05;3.35;;;;;;;17.32;61.83;94850.03;5102992;28;20168;-80
2022/10/03 12:56:27;;;;;;;2.67;2.45;;;;;;;17.34;61.71;94838.06;5108519;28;20181;-81
2022/10/03 12:59:30;;;;;;;6.40;3.10;;;;;;;17.29;62.00;94850.53;5100161;28;20267;-80
2022/10/03 13:02:37;;;;;;;4.90;2.92;;;;;;;17.20;58.95;94852.06;5111777;28;20176;-80
2022/10/03 13:05:24;;;;;;;5.90;3.42;;;;;;;17.11;60.12;94849.03;5094203;28;20200;-80
2022/10/03 13:08:16;;;;;;;3.60;3.30;;;;;;;17.15;61.82;94844.81;5113888;28;20584;-80
2022/10/03 13:10:55;;;;;;;4.40;2.95;;;;;;;17.28;60.90;94856.91;5111451;28;20276;-79
2022/10/03 13:13:51;;;;;;;4.35;3.30;;;;;;;17.33;60.49;94859.63;5111507;28;20195;-80
2022/10/03 13:16:31;;;;;;;5.03;2.80;;;;;;;17.23;60.52;94840.88;5111498;28;20173;-80
2022/10/03 13:19:26;;;;;;;3.15;2.20;;;;;;;17.23;60.84;94854.19;5110498;28;20255;-80